sensor_id;sensor_type;location;lat;lon;timestamp;temperature;humidity
14908;DHT22;7545;52.092;7.006;2023-03-18T00:01:01;13.30;99.90
14908;DHT22;7545;52.092;7.006;2023-03-18T00:03:31;13.30;99.90
14908;DHT22;7545;52.092;7.006;2023-03-18T00:06:12;13.30;99.90
14908;DHT22;7545;52.092;7.006;2023-03-18T00:08:40;13.30;99.90
14908;DHT22;7545;52.092;7.006;2023-03-18T00:11:08;13.30;99.90
14908;DHT22;7545;52.092;7.006;2023-03-18T00:13:35;13.30;99.90
14908;DHT22;7545;52.092;7.006;2023-03-18T00:16:03;13.30;99.90
14908;DHT22;7545;52.092;7.006;2023-03-18T00:18:29;13.30;99.90
14908;DHT22;7545;52.092;7.006;2023-03-18T00:20:56;13.30;99.90
14908;DHT22;7545;52.092;7.006;2023-03-18T00:23:23;13.30;99.90
14908;DHT22;7545;52.092;7.006;2023-03-18T00:25:52;13.30;99.90
14908;DHT22;7545;52.092;7.006;2023-03-18T00:28:18;13.30;99.90
14908;DHT22;7545;52.092;7.006;2023-03-18T00:30:44;13.30;99.90
14908;DHT22;7545;52.092;7.006;2023-03-18T00:33:10;13.30;99.90
14908;DHT22;7545;52.092;7.006;2023-03-18T00:35:37;13.30;99.90
14908;DHT22;7545;52.092;7.006;2023-03-18T00:38:04;13.30;99.90
14908;DHT22;7545;52.092;7.006;2023-03-18T00:40:32;13.30;99.90
14908;DHT22;7545;52.092;7.006;2023-03-18T00:43:09;13.30;99.90
14908;DHT22;7545;52.092;7.006;2023-03-18T00:45:41;13.30;99.90
14908;DHT22;7545;52.092;7.006;2023-03-18T00:48:07;13.20;99.90
14908;DHT22;7545;52.092;7.006;2023-03-18T00:50:34;13.20;99.90
14908;DHT22;7545;52.092;7.006;2023-03-18T00:53:01;13.20;99.90
14908;DHT22;7545;52.092;7.006;2023-03-18T00:55:27;13.20;99.90
14908;DHT22;7545;52.092;7.006;2023-03-18T00:57:53;13.20;99.90
14908;DHT22;7545;52.092;7.006;2023-03-18T01:00:19;13.20;99.90
14908;DHT22;7545;52.092;7.006;2023-03-18T01:02:45;13.20;99.90
14908;DHT22;7545;52.092;7.006;2023-03-18T01:05:14;13.20;99.90
14908;DHT22;7545;52.092;7.006;2023-03-18T01:07:41;13.20;99.90
14908;DHT22;7545;52.092;7.006;2023-03-18T01:10:08;13.20;99.90
14908;DHT22;7545;52.092;7.006;2023-03-18T01:12:37;13.20;99.90
14908;DHT22;7545;52.092;7.006;2023-03-18T01:15:03;13.20;99.90
14908;DHT22;7545;52.092;7.006;2023-03-18T01:17:30;13.20;99.90
14908;DHT22;7545;52.092;7.006;2023-03-18T01:19:56;13.10;99.90
14908;DHT22;7545;52.092;7.006;2023-03-18T01:22:22;13.10;99.90
14908;DHT22;7545;52.092;7.006;2023-03-18T01:24:48;13.10;99.90
14908;DHT22;7545;52.092;7.006;2023-03-18T01:27:14;13.10;99.90
14908;DHT22;7545;52.092;7.006;2023-03-18T01:29:39;13.10;99.90
14908;DHT22;7545;52.092;7.006;2023-03-18T01:32:05;13.10;99.90
14908;DHT22;7545;52.092;7.006;2023-03-18T01:34:31;13.00;99.90
14908;DHT22;7545;52.092;7.006;2023-03-18T01:36:57;13.00;99.90
14908;DHT22;7545;52.092;7.006;2023-03-18T01:39:23;13.00;99.90
14908;DHT22;7545;52.092;7.006;2023-03-18T01:41:49;13.00;99.90
14908;DHT22;7545;52.092;7.006;2023-03-18T01:44:18;13.00;99.90
14908;DHT22;7545;52.092;7.006;2023-03-18T01:46:46;12.90;99.90
14908;DHT22;7545;52.092;7.006;2023-03-18T01:51:43;12.90;99.90
14908;DHT22;7545;52.092;7.006;2023-03-18T01:54:11;12.90;99.90
14908;DHT22;7545;52.092;7.006;2023-03-18T01:56:38;12.90;99.90
14908;DHT22;7545;52.092;7.006;2023-03-18T01:59:06;12.90;99.90
14908;DHT22;7545;52.092;7.006;2023-03-18T02:01:46;12.90;99.90
14908;DHT22;7545;52.092;7.006;2023-03-18T02:04:13;12.80;99.90
14908;DHT22;7545;52.092;7.006;2023-03-18T02:06:38;12.80;99.90
14908;DHT22;7545;52.092;7.006;2023-03-18T02:09:05;12.80;99.90
14908;DHT22;7545;52.092;7.006;2023-03-18T02:11:34;12.80;99.90
14908;DHT22;7545;52.092;7.006;2023-03-18T02:14:02;12.80;99.90
14908;DHT22;7545;52.092;7.006;2023-03-18T02:16:44;12.70;99.90
14908;DHT22;7545;52.092;7.006;2023-03-18T02:19:25;12.70;99.90
14908;DHT22;7545;52.092;7.006;2023-03-18T02:27:34;12.60;99.90
14908;DHT22;7545;52.092;7.006;2023-03-18T02:30:10;12.60;99.90
14908;DHT22;7545;52.092;7.006;2023-03-18T02:32:39;12.60;99.90
14908;DHT22;7545;52.092;7.006;2023-03-18T02:35:08;12.50;99.90
14908;DHT22;7545;52.092;7.006;2023-03-18T02:37:34;12.50;99.90
14908;DHT22;7545;52.092;7.006;2023-03-18T02:40:24;12.50;99.90
14908;DHT22;7545;52.092;7.006;2023-03-18T02:42:50;12.50;99.90
14908;DHT22;7545;52.092;7.006;2023-03-18T02:45:44;12.50;99.90
14908;DHT22;7545;52.092;7.006;2023-03-18T02:48:16;12.40;99.90
14908;DHT22;7545;52.092;7.006;2023-03-18T02:50:43;12.40;99.90
14908;DHT22;7545;52.092;7.006;2023-03-18T02:53:11;12.40;99.90
14908;DHT22;7545;52.092;7.006;2023-03-18T02:55:38;12.40;99.90
14908;DHT22;7545;52.092;7.006;2023-03-18T02:58:03;12.40;99.90
14908;DHT22;7545;52.092;7.006;2023-03-18T03:00:29;12.40;99.90
14908;DHT22;7545;52.092;7.006;2023-03-18T03:02:54;12.40;99.90
14908;DHT22;7545;52.092;7.006;2023-03-18T03:05:20;12.40;99.90
14908;DHT22;7545;52.092;7.006;2023-03-18T03:07:46;12.40;99.90
14908;DHT22;7545;52.092;7.006;2023-03-18T03:10:12;12.40;99.90
14908;DHT22;7545;52.092;7.006;2023-03-18T03:12:38;12.40;99.90
14908;DHT22;7545;52.092;7.006;2023-03-18T03:15:07;12.40;99.90
14908;DHT22;7545;52.092;7.006;2023-03-18T03:17:33;12.40;99.90
14908;DHT22;7545;52.092;7.006;2023-03-18T03:20:00;12.30;99.90
14908;DHT22;7545;52.092;7.006;2023-03-18T03:22:26;12.30;99.90
14908;DHT22;7545;52.092;7.006;2023-03-18T03:24:52;12.40;99.90
14908;DHT22;7545;52.092;7.006;2023-03-18T03:27:18;12.30;99.90
14908;DHT22;7545;52.092;7.006;2023-03-18T03:29:43;12.30;99.90
14908;DHT22;7545;52.092;7.006;2023-03-18T03:32:09;12.30;99.90
14908;DHT22;7545;52.092;7.006;2023-03-18T03:34:35;12.30;99.90
14908;DHT22;7545;52.092;7.006;2023-03-18T03:37:00;12.30;99.90
14908;DHT22;7545;52.092;7.006;2023-03-18T03:39:26;12.30;99.90
14908;DHT22;7545;52.092;7.006;2023-03-18T03:41:52;12.30;99.90
14908;DHT22;7545;52.092;7.006;2023-03-18T03:44:18;12.30;99.90
14908;DHT22;7545;52.092;7.006;2023-03-18T03:46:43;12.30;99.90
14908;DHT22;7545;52.092;7.006;2023-03-18T03:49:10;12.30;99.90
14908;DHT22;7545;52.092;7.006;2023-03-18T03:51:36;12.30;99.90
14908;DHT22;7545;52.092;7.006;2023-03-18T03:54:05;12.30;99.90
14908;DHT22;7545;52.092;7.006;2023-03-18T03:56:30;12.30;99.90
14908;DHT22;7545;52.092;7.006;2023-03-18T03:58:56;12.30;99.90
14908;DHT22;7545;52.092;7.006;2023-03-18T04:01:22;12.30;99.90
14908;DHT22;7545;52.092;7.006;2023-03-18T04:03:48;12.30;99.90
14908;DHT22;7545;52.092;7.006;2023-03-18T04:06:14;12.30;99.90
14908;DHT22;7545;52.092;7.006;2023-03-18T04:08:40;12.30;99.90
14908;DHT22;7545;52.092;7.006;2023-03-18T04:11:06;12.30;99.90
14908;DHT22;7545;52.092;7.006;2023-03-18T04:13:32;12.30;99.90
14908;DHT22;7545;52.092;7.006;2023-03-18T04:15:58;12.30;99.90
14908;DHT22;7545;52.092;7.006;2023-03-18T04:18:24;12.20;99.90
14908;DHT22;7545;52.092;7.006;2023-03-18T04:20:50;12.30;99.90
14908;DHT22;7545;52.092;7.006;2023-03-18T04:23:16;12.20;99.90
14908;DHT22;7545;52.092;7.006;2023-03-18T04:25:41;12.20;99.90
14908;DHT22;7545;52.092;7.006;2023-03-18T04:28:07;12.20;99.90
14908;DHT22;7545;52.092;7.006;2023-03-18T04:30:33;12.20;99.90
14908;DHT22;7545;52.092;7.006;2023-03-18T04:32:59;12.20;99.90
14908;DHT22;7545;52.092;7.006;2023-03-18T04:35:26;12.20;99.90
14908;DHT22;7545;52.092;7.006;2023-03-18T04:37:52;12.20;99.90
14908;DHT22;7545;52.092;7.006;2023-03-18T04:40:19;12.20;99.90
14908;DHT22;7545;52.092;7.006;2023-03-18T04:42:45;12.20;99.90
14908;DHT22;7545;52.092;7.006;2023-03-18T04:45:13;12.20;99.90
14908;DHT22;7545;52.092;7.006;2023-03-18T04:47:40;12.20;99.90
14908;DHT22;7545;52.092;7.006;2023-03-18T04:50:07;12.20;99.90
14908;DHT22;7545;52.092;7.006;2023-03-18T04:52:35;12.20;99.90
14908;DHT22;7545;52.092;7.006;2023-03-18T04:55:01;12.20;99.90
14908;DHT22;7545;52.092;7.006;2023-03-18T04:57:28;12.10;99.90
14908;DHT22;7545;52.092;7.006;2023-03-18T04:59:53;12.20;99.90
14908;DHT22;7545;52.092;7.006;2023-03-18T05:02:19;12.10;99.90
14908;DHT22;7545;52.092;7.006;2023-03-18T05:04:45;12.10;99.90
14908;DHT22;7545;52.092;7.006;2023-03-18T05:07:13;12.10;99.90
14908;DHT22;7545;52.092;7.006;2023-03-18T05:09:39;12.10;99.90
14908;DHT22;7545;52.092;7.006;2023-03-18T05:12:09;12.10;99.90
14908;DHT22;7545;52.092;7.006;2023-03-18T05:14:35;12.10;99.90
14908;DHT22;7545;52.092;7.006;2023-03-18T05:17:01;12.10;99.90
14908;DHT22;7545;52.092;7.006;2023-03-18T05:19:28;12.10;99.90
14908;DHT22;7545;52.092;7.006;2023-03-18T05:21:55;12.10;99.90
14908;DHT22;7545;52.092;7.006;2023-03-18T05:24:20;12.00;99.90
14908;DHT22;7545;52.092;7.006;2023-03-18T05:26:46;12.10;99.90
14908;DHT22;7545;52.092;7.006;2023-03-18T05:29:12;12.00;99.90
14908;DHT22;7545;52.092;7.006;2023-03-18T05:31:38;12.00;99.90
14908;DHT22;7545;52.092;7.006;2023-03-18T05:34:04;12.00;99.90
14908;DHT22;7545;52.092;7.006;2023-03-18T05:36:31;12.00;99.90
14908;DHT22;7545;52.092;7.006;2023-03-18T05:38:57;12.00;99.90
14908;DHT22;7545;52.092;7.006;2023-03-18T05:41:23;12.00;99.90
14908;DHT22;7545;52.092;7.006;2023-03-18T05:43:49;12.00;99.90
14908;DHT22;7545;52.092;7.006;2023-03-18T05:46:15;12.00;99.90
14908;DHT22;7545;52.092;7.006;2023-03-18T05:48:41;12.00;99.90
14908;DHT22;7545;52.092;7.006;2023-03-18T05:51:07;12.00;99.90
14908;DHT22;7545;52.092;7.006;2023-03-18T05:53:33;12.00;99.90
14908;DHT22;7545;52.092;7.006;2023-03-18T05:55:59;12.00;99.90
14908;DHT22;7545;52.092;7.006;2023-03-18T05:58:25;12.00;99.90
14908;DHT22;7545;52.092;7.006;2023-03-18T06:00:56;12.00;99.90
14908;DHT22;7545;52.092;7.006;2023-03-18T06:03:21;12.00;99.90
14908;DHT22;7545;52.092;7.006;2023-03-18T06:05:49;12.00;99.90
14908;DHT22;7545;52.092;7.006;2023-03-18T06:08:15;12.00;99.90
14908;DHT22;7545;52.092;7.006;2023-03-18T06:10:42;12.00;99.90
14908;DHT22;7545;52.092;7.006;2023-03-18T06:13:09;12.00;99.90
14908;DHT22;7545;52.092;7.006;2023-03-18T06:15:35;12.00;99.90
14908;DHT22;7545;52.092;7.006;2023-03-18T06:18:02;12.00;99.90
14908;DHT22;7545;52.092;7.006;2023-03-18T06:20:29;12.00;99.90
14908;DHT22;7545;52.092;7.006;2023-03-18T06:22:54;12.00;99.90
14908;DHT22;7545;52.092;7.006;2023-03-18T06:25:22;12.00;99.90
14908;DHT22;7545;52.092;7.006;2023-03-18T06:27:49;12.00;99.90
14908;DHT22;7545;52.092;7.006;2023-03-18T06:30:16;12.00;99.90
14908;DHT22;7545;52.092;7.006;2023-03-18T06:32:42;12.00;99.90
14908;DHT22;7545;52.092;7.006;2023-03-18T06:35:08;12.00;99.90
14908;DHT22;7545;52.092;7.006;2023-03-18T06:37:35;12.00;99.90
14908;DHT22;7545;52.092;7.006;2023-03-18T06:40:02;12.00;99.90
14908;DHT22;7545;52.092;7.006;2023-03-18T06:42:28;12.00;99.90
14908;DHT22;7545;52.092;7.006;2023-03-18T06:44:53;12.00;99.90
14908;DHT22;7545;52.092;7.006;2023-03-18T06:47:20;12.00;99.90
14908;DHT22;7545;52.092;7.006;2023-03-18T06:49:49;12.10;99.90
14908;DHT22;7545;52.092;7.006;2023-03-18T06:52:16;12.00;99.90
14908;DHT22;7545;52.092;7.006;2023-03-18T06:54:43;12.10;99.90
14908;DHT22;7545;52.092;7.006;2023-03-18T06:57:09;12.10;99.90
14908;DHT22;7545;52.092;7.006;2023-03-18T06:59:35;12.10;99.90
14908;DHT22;7545;52.092;7.006;2023-03-18T07:02:01;12.10;99.90
14908;DHT22;7545;52.092;7.006;2023-03-18T07:04:27;12.10;99.90
14908;DHT22;7545;52.092;7.006;2023-03-18T07:06:52;12.10;99.90
14908;DHT22;7545;52.092;7.006;2023-03-18T07:09:18;12.10;99.90
14908;DHT22;7545;52.092;7.006;2023-03-18T07:11:44;12.10;99.90
14908;DHT22;7545;52.092;7.006;2023-03-18T07:14:12;12.10;99.90
14908;DHT22;7545;52.092;7.006;2023-03-18T07:16:41;12.10;99.90
14908;DHT22;7545;52.092;7.006;2023-03-18T07:19:07;12.20;99.90
14908;DHT22;7545;52.092;7.006;2023-03-18T07:21:32;12.20;99.90
14908;DHT22;7545;52.092;7.006;2023-03-18T07:23:58;12.20;99.90
14908;DHT22;7545;52.092;7.006;2023-03-18T07:26:24;12.20;99.90
14908;DHT22;7545;52.092;7.006;2023-03-18T07:28:50;12.30;99.90
14908;DHT22;7545;52.092;7.006;2023-03-18T07:31:16;12.30;99.90
14908;DHT22;7545;52.092;7.006;2023-03-18T07:33:42;12.30;99.90
14908;DHT22;7545;52.092;7.006;2023-03-18T07:36:07;12.40;99.90
14908;DHT22;7545;52.092;7.006;2023-03-18T07:38:33;12.40;99.90
14908;DHT22;7545;52.092;7.006;2023-03-18T07:40:59;12.40;99.90
14908;DHT22;7545;52.092;7.006;2023-03-18T07:43:26;12.40;99.90
14908;DHT22;7545;52.092;7.006;2023-03-18T07:45:52;12.40;99.90
14908;DHT22;7545;52.092;7.006;2023-03-18T07:48:17;12.40;99.90
14908;DHT22;7545;52.092;7.006;2023-03-18T07:50:44;12.40;99.90
14908;DHT22;7545;52.092;7.006;2023-03-18T07:53:10;12.50;99.90
14908;DHT22;7545;52.092;7.006;2023-03-18T07:55:36;12.50;99.90
14908;DHT22;7545;52.092;7.006;2023-03-18T07:58:02;12.50;99.90
14908;DHT22;7545;52.092;7.006;2023-03-18T08:00:29;12.50;99.90
14908;DHT22;7545;52.092;7.006;2023-03-18T08:02:58;12.50;99.90
14908;DHT22;7545;52.092;7.006;2023-03-18T08:05:26;12.60;99.90
14908;DHT22;7545;52.092;7.006;2023-03-18T08:07:52;12.60;99.90
14908;DHT22;7545;52.092;7.006;2023-03-18T08:10:18;12.60;99.90
14908;DHT22;7545;52.092;7.006;2023-03-18T08:12:45;12.70;99.90
14908;DHT22;7545;52.092;7.006;2023-03-18T08:15:10;12.70;99.90
14908;DHT22;7545;52.092;7.006;2023-03-18T08:17:37;12.70;99.90
14908;DHT22;7545;52.092;7.006;2023-03-18T08:20:04;12.80;99.90
14908;DHT22;7545;52.092;7.006;2023-03-18T08:22:30;12.80;99.90
14908;DHT22;7545;52.092;7.006;2023-03-18T08:24:55;12.80;99.90
14908;DHT22;7545;52.092;7.006;2023-03-18T08:27:22;12.80;99.90
14908;DHT22;7545;52.092;7.006;2023-03-18T08:29:48;12.80;99.90
14908;DHT22;7545;52.092;7.006;2023-03-18T08:32:14;12.90;99.90
14908;DHT22;7545;52.092;7.006;2023-03-18T08:34:41;12.90;99.90
14908;DHT22;7545;52.092;7.006;2023-03-18T08:37:07;12.90;99.90
14908;DHT22;7545;52.092;7.006;2023-03-18T08:39:33;12.90;99.90
14908;DHT22;7545;52.092;7.006;2023-03-18T08:42:01;13.00;99.90
14908;DHT22;7545;52.092;7.006;2023-03-18T08:44:27;13.00;99.90
14908;DHT22;7545;52.092;7.006;2023-03-18T08:46:53;13.00;99.90
14908;DHT22;7545;52.092;7.006;2023-03-18T08:49:18;13.00;99.90
14908;DHT22;7545;52.092;7.006;2023-03-18T08:51:44;13.00;99.90
14908;DHT22;7545;52.092;7.006;2023-03-18T08:54:11;13.10;99.90
14908;DHT22;7545;52.092;7.006;2023-03-18T08:56:37;13.10;99.90
14908;DHT22;7545;52.092;7.006;2023-03-18T08:59:03;13.10;99.90
14908;DHT22;7545;52.092;7.006;2023-03-18T09:01:29;13.20;99.90
14908;DHT22;7545;52.092;7.006;2023-03-18T09:03:54;13.20;99.90
14908;DHT22;7545;52.092;7.006;2023-03-18T09:06:22;13.30;99.90
14908;DHT22;7545;52.092;7.006;2023-03-18T09:08:47;13.40;99.90
14908;DHT22;7545;52.092;7.006;2023-03-18T09:11:13;13.40;99.90
14908;DHT22;7545;52.092;7.006;2023-03-18T09:13:39;13.50;99.90
14908;DHT22;7545;52.092;7.006;2023-03-18T09:16:04;13.60;99.90
14908;DHT22;7545;52.092;7.006;2023-03-18T09:18:30;13.60;99.90
14908;DHT22;7545;52.092;7.006;2023-03-18T09:20:57;13.60;99.90
14908;DHT22;7545;52.092;7.006;2023-03-18T09:23:22;13.70;99.90
14908;DHT22;7545;52.092;7.006;2023-03-18T09:25:48;13.70;99.90
14908;DHT22;7545;52.092;7.006;2023-03-18T09:28:14;13.70;99.90
14908;DHT22;7545;52.092;7.006;2023-03-18T09:30:41;13.80;99.90
14908;DHT22;7545;52.092;7.006;2023-03-18T09:33:07;13.80;99.90
14908;DHT22;7545;52.092;7.006;2023-03-18T09:35:34;13.80;99.90
14908;DHT22;7545;52.092;7.006;2023-03-18T09:38:00;13.80;99.90
14908;DHT22;7545;52.092;7.006;2023-03-18T09:40:29;13.80;99.90
14908;DHT22;7545;52.092;7.006;2023-03-18T09:43:33;13.80;99.90
14908;DHT22;7545;52.092;7.006;2023-03-18T09:49:37;13.80;99.90
14908;DHT22;7545;52.092;7.006;2023-03-18T09:57:45;14.10;99.90
14908;DHT22;7545;52.092;7.006;2023-03-18T10:00:19;14.10;99.90
14908;DHT22;7545;52.092;7.006;2023-03-18T10:02:55;14.10;99.90
14908;DHT22;7545;52.092;7.006;2023-03-18T10:07:54;14.20;99.90
14908;DHT22;7545;52.092;7.006;2023-03-18T10:10:35;14.30;99.90
14908;DHT22;7545;52.092;7.006;2023-03-18T10:13:16;14.20;99.90
14908;DHT22;7545;52.092;7.006;2023-03-18T10:15:48;14.30;99.90
14908;DHT22;7545;52.092;7.006;2023-03-18T10:21:23;14.20;99.90
14908;DHT22;7545;52.092;7.006;2023-03-18T10:26:48;14.30;99.90
14908;DHT22;7545;52.092;7.006;2023-03-18T10:32:41;14.30;99.90
14908;DHT22;7545;52.092;7.006;2023-03-18T10:35:36;14.30;99.90
14908;DHT22;7545;52.092;7.006;2023-03-18T10:38:38;14.30;99.90
14908;DHT22;7545;52.092;7.006;2023-03-18T10:43:46;14.60;99.90
14908;DHT22;7545;52.092;7.006;2023-03-18T10:46:15;14.70;99.90
14908;DHT22;7545;52.092;7.006;2023-03-18T10:48:49;14.80;99.90
14908;DHT22;7545;52.092;7.006;2023-03-18T10:54:26;15.10;99.90
14908;DHT22;7545;52.092;7.006;2023-03-18T10:56:59;15.30;99.90
14908;DHT22;7545;52.092;7.006;2023-03-18T10:59:26;15.50;99.90
14908;DHT22;7545;52.092;7.006;2023-03-18T11:02:03;15.60;99.90
14908;DHT22;7545;52.092;7.006;2023-03-18T11:04:35;15.70;99.90
14908;DHT22;7545;52.092;7.006;2023-03-18T11:07:04;15.80;99.90
14908;DHT22;7545;52.092;7.006;2023-03-18T11:09:36;15.90;99.90
14908;DHT22;7545;52.092;7.006;2023-03-18T11:12:27;16.10;99.90
14908;DHT22;7545;52.092;7.006;2023-03-18T11:14:54;16.20;99.90
14908;DHT22;7545;52.092;7.006;2023-03-18T11:17:32;16.30;99.90
14908;DHT22;7545;52.092;7.006;2023-03-18T11:20:00;16.40;99.90
14908;DHT22;7545;52.092;7.006;2023-03-18T11:22:29;16.40;99.90
14908;DHT22;7545;52.092;7.006;2023-03-18T11:25:17;16.50;99.90
14908;DHT22;7545;52.092;7.006;2023-03-18T11:27:55;16.50;99.90
14908;DHT22;7545;52.092;7.006;2023-03-18T11:30:25;16.50;99.90
14908;DHT22;7545;52.092;7.006;2023-03-18T11:32:58;16.40;99.90
14908;DHT22;7545;52.092;7.006;2023-03-18T11:38:05;16.40;99.90
14908;DHT22;7545;52.092;7.006;2023-03-18T11:40:38;16.40;99.90
14908;DHT22;7545;52.092;7.006;2023-03-18T11:43:20;16.50;99.90
14908;DHT22;7545;52.092;7.006;2023-03-18T11:45:58;16.60;99.90
14908;DHT22;7545;52.092;7.006;2023-03-18T11:48:34;16.70;99.90
14908;DHT22;7545;52.092;7.006;2023-03-18T11:54:03;17.00;99.90
14908;DHT22;7545;52.092;7.006;2023-03-18T11:56:41;17.10;99.90
14908;DHT22;7545;52.092;7.006;2023-03-18T12:04:54;17.50;99.90
14908;DHT22;7545;52.092;7.006;2023-03-18T12:18:10;17.80;99.90
14908;DHT22;7545;52.092;7.006;2023-03-18T12:20:52;17.90;99.90
14908;DHT22;7545;52.092;7.006;2023-03-18T12:26:28;18.00;99.90
14908;DHT22;7545;52.092;7.006;2023-03-18T12:31:49;18.00;99.90
14908;DHT22;7545;52.092;7.006;2023-03-18T12:34:59;18.10;99.90
14908;DHT22;7545;52.092;7.006;2023-03-18T12:37:09;18.20;99.90
14908;DHT22;7545;52.092;7.006;2023-03-18T12:45:29;18.50;99.90
14908;DHT22;7545;52.092;7.006;2023-03-18T12:48:02;18.60;99.90
14908;DHT22;7545;52.092;7.006;2023-03-18T12:50:46;18.70;99.90
14908;DHT22;7545;52.092;7.006;2023-03-18T12:53:33;18.80;99.90
14908;DHT22;7545;52.092;7.006;2023-03-18T12:56:04;18.80;99.90
14908;DHT22;7545;52.092;7.006;2023-03-18T12:58:47;18.70;99.90
14908;DHT22;7545;52.092;7.006;2023-03-18T13:01:25;18.70;99.90
14908;DHT22;7545;52.092;7.006;2023-03-18T13:04:16;18.60;99.90
14908;DHT22;7545;52.092;7.006;2023-03-18T13:06:53;18.60;99.90
14908;DHT22;7545;52.092;7.006;2023-03-18T13:12:10;18.90;99.90
14908;DHT22;7545;52.092;7.006;2023-03-18T13:17:43;19.10;99.90
14908;DHT22;7545;52.092;7.006;2023-03-18T13:20:29;19.20;99.90
14908;DHT22;7545;52.092;7.006;2023-03-18T13:31:47;19.10;99.90
14908;DHT22;7545;52.092;7.006;2023-03-18T13:37:16;19.10;99.90
14908;DHT22;7545;52.092;7.006;2023-03-18T13:42:58;19.10;99.90
14908;DHT22;7545;52.092;7.006;2023-03-18T13:45:41;19.00;99.90
14908;DHT22;7545;52.092;7.006;2023-03-18T13:50:40;18.90;99.90
14908;DHT22;7545;52.092;7.006;2023-03-18T13:56:00;18.90;99.90
14908;DHT22;7545;52.092;7.006;2023-03-18T13:58:50;18.90;99.90
14908;DHT22;7545;52.092;7.006;2023-03-18T14:01:29;18.80;99.90
14908;DHT22;7545;52.092;7.006;2023-03-18T14:04:29;18.80;99.90
14908;DHT22;7545;52.092;7.006;2023-03-18T14:09:33;18.60;99.90
14908;DHT22;7545;52.092;7.006;2023-03-18T14:20:27;18.40;99.90
14908;DHT22;7545;52.092;7.006;2023-03-18T14:22:54;18.40;99.90
14908;DHT22;7545;52.092;7.006;2023-03-18T14:28:10;18.40;99.90
14908;DHT22;7545;52.092;7.006;2023-03-18T14:33:28;18.40;99.90
14908;DHT22;7545;52.092;7.006;2023-03-18T14:35:58;18.30;99.90
14908;DHT22;7545;52.092;7.006;2023-03-18T14:41:03;18.30;99.90
14908;DHT22;7545;52.092;7.006;2023-03-18T14:43:58;18.30;99.90
14908;DHT22;7545;52.092;7.006;2023-03-18T14:46:31;18.30;99.90
14908;DHT22;7545;52.092;7.006;2023-03-18T14:48:58;18.30;99.90
14908;DHT22;7545;52.092;7.006;2023-03-18T14:51:26;18.20;99.90
14908;DHT22;7545;52.092;7.006;2023-03-18T14:56:27;18.00;99.90
14908;DHT22;7545;52.092;7.006;2023-03-18T14:58:54;18.00;99.90
14908;DHT22;7545;52.092;7.006;2023-03-18T15:01:37;17.90;99.90
14908;DHT22;7545;52.092;7.006;2023-03-18T15:04:05;17.90;99.90
14908;DHT22;7545;52.092;7.006;2023-03-18T15:06:32;17.70;99.90
14908;DHT22;7545;52.092;7.006;2023-03-18T15:09:18;17.70;99.90
14908;DHT22;7545;52.092;7.006;2023-03-18T15:11:45;17.60;99.90
14908;DHT22;7545;52.092;7.006;2023-03-18T15:14:29;17.50;99.90
14908;DHT22;7545;52.092;7.006;2023-03-18T15:16:58;17.30;99.90
14908;DHT22;7545;52.092;7.006;2023-03-18T15:19:27;17.20;99.90
14908;DHT22;7545;52.092;7.006;2023-03-18T15:21:53;17.10;99.90
14908;DHT22;7545;52.092;7.006;2023-03-18T15:24:22;17.10;99.90
14908;DHT22;7545;52.092;7.006;2023-03-18T15:26:58;16.90;99.90
14908;DHT22;7545;52.092;7.006;2023-03-18T15:29:27;16.80;99.90
14908;DHT22;7545;52.092;7.006;2023-03-18T15:32:05;16.70;99.90
14908;DHT22;7545;52.092;7.006;2023-03-18T15:34:36;16.60;99.90
14908;DHT22;7545;52.092;7.006;2023-03-18T15:39:50;16.50;99.90
14908;DHT22;7545;52.092;7.006;2023-03-18T15:42:22;16.40;99.90
14908;DHT22;7545;52.092;7.006;2023-03-18T15:45:15;16.50;99.90
14908;DHT22;7545;52.092;7.006;2023-03-18T15:47:42;16.40;99.90
14908;DHT22;7545;52.092;7.006;2023-03-18T15:50:27;16.40;99.90
14908;DHT22;7545;52.092;7.006;2023-03-18T15:53:17;16.40;99.90
14908;DHT22;7545;52.092;7.006;2023-03-18T15:56:11;16.50;99.90
14908;DHT22;7545;52.092;7.006;2023-03-18T15:58:38;16.50;99.90
14908;DHT22;7545;52.092;7.006;2023-03-18T16:01:04;16.50;99.90
14908;DHT22;7545;52.092;7.006;2023-03-18T16:03:32;16.50;99.90
14908;DHT22;7545;52.092;7.006;2023-03-18T16:05:59;16.50;99.90
14908;DHT22;7545;52.092;7.006;2023-03-18T16:08:25;16.40;99.90
14908;DHT22;7545;52.092;7.006;2023-03-18T16:10:57;16.50;99.90
14908;DHT22;7545;52.092;7.006;2023-03-18T16:13:33;16.40;99.90
14908;DHT22;7545;52.092;7.006;2023-03-18T16:16:00;16.40;99.90
14908;DHT22;7545;52.092;7.006;2023-03-18T16:18:25;16.30;99.90
14908;DHT22;7545;52.092;7.006;2023-03-18T16:20:51;16.30;99.90
14908;DHT22;7545;52.092;7.006;2023-03-18T16:23:18;16.30;99.90
14908;DHT22;7545;52.092;7.006;2023-03-18T16:25:46;16.20;99.90
14908;DHT22;7545;52.092;7.006;2023-03-18T16:28:24;16.30;99.90
14908;DHT22;7545;52.092;7.006;2023-03-18T16:30:53;16.30;99.90
14908;DHT22;7545;52.092;7.006;2023-03-18T16:33:21;16.20;99.90
14908;DHT22;7545;52.092;7.006;2023-03-18T16:35:54;16.20;99.90
14908;DHT22;7545;52.092;7.006;2023-03-18T16:38:21;16.30;99.90
14908;DHT22;7545;52.092;7.006;2023-03-18T16:40:47;16.30;99.90
14908;DHT22;7545;52.092;7.006;2023-03-18T16:43:18;16.30;99.90
14908;DHT22;7545;52.092;7.006;2023-03-18T16:45:45;16.40;99.90
14908;DHT22;7545;52.092;7.006;2023-03-18T16:48:14;16.40;99.90
14908;DHT22;7545;52.092;7.006;2023-03-18T16:50:42;16.40;99.90
14908;DHT22;7545;52.092;7.006;2023-03-18T16:53:22;16.30;99.90
14908;DHT22;7545;52.092;7.006;2023-03-18T16:55:51;16.30;99.90
14908;DHT22;7545;52.092;7.006;2023-03-18T16:58:22;16.20;99.90
14908;DHT22;7545;52.092;7.006;2023-03-18T17:00:49;16.10;99.90
14908;DHT22;7545;52.092;7.006;2023-03-18T17:03:16;16.00;99.90
14908;DHT22;7545;52.092;7.006;2023-03-18T17:05:46;15.90;99.90
14908;DHT22;7545;52.092;7.006;2023-03-18T17:08:15;15.90;99.90
14908;DHT22;7545;52.092;7.006;2023-03-18T17:10:41;15.80;99.90
14908;DHT22;7545;52.092;7.006;2023-03-18T17:13:16;15.70;99.90
14908;DHT22;7545;52.092;7.006;2023-03-18T17:15:42;15.60;99.90
14908;DHT22;7545;52.092;7.006;2023-03-18T17:18:13;15.60;99.90
14908;DHT22;7545;52.092;7.006;2023-03-18T17:20:39;15.50;99.90
14908;DHT22;7545;52.092;7.006;2023-03-18T17:23:13;15.40;99.90
14908;DHT22;7545;52.092;7.006;2023-03-18T17:25:39;15.40;99.90
14908;DHT22;7545;52.092;7.006;2023-03-18T17:28:06;15.30;99.90
14908;DHT22;7545;52.092;7.006;2023-03-18T17:30:37;15.20;99.90
14908;DHT22;7545;52.092;7.006;2023-03-18T17:33:24;15.20;99.90
14908;DHT22;7545;52.092;7.006;2023-03-18T17:35:50;15.10;99.90
14908;DHT22;7545;52.092;7.006;2023-03-18T17:38:20;15.10;99.90
14908;DHT22;7545;52.092;7.006;2023-03-18T17:40:46;15.00;99.90
14908;DHT22;7545;52.092;7.006;2023-03-18T17:43:25;15.00;99.90
14908;DHT22;7545;52.092;7.006;2023-03-18T17:45:52;14.90;99.90
14908;DHT22;7545;52.092;7.006;2023-03-18T17:48:29;14.90;99.90
14908;DHT22;7545;52.092;7.006;2023-03-18T17:50:57;14.80;99.90
14908;DHT22;7545;52.092;7.006;2023-03-18T17:53:32;14.80;99.90
14908;DHT22;7545;52.092;7.006;2023-03-18T17:55:59;14.70;99.90
14908;DHT22;7545;52.092;7.006;2023-03-18T17:58:27;14.70;99.90